sensor_id;sensor_type;location;lat;lon;timestamp;P1;durP1;ratioP1;P2;durP2;ratioP2
29688;SDS011;16600;47.444;8.334;2023-05-07T00:02:27;3.45;;;2.95;;
29688;SDS011;16600;47.444;8.334;2023-05-07T00:04:54;3.10;;;2.20;;
29688;SDS011;16600;47.444;8.334;2023-05-07T00:07:25;2.95;;;2.65;;
29688;SDS011;16600;47.444;8.334;2023-05-07T00:10:01;4.68;;;3.22;;
29688;SDS011;16600;47.444;8.334;2023-05-07T00:12:35;2.72;;;2.47;;
29688;SDS011;16600;47.444;8.334;2023-05-07T00:15:21;4.65;;;2.83;;
29688;SDS011;16600;47.444;8.334;2023-05-07T00:18:10;5.80;;;3.25;;
29688;SDS011;16600;47.444;8.334;2023-05-07T00:20:42;3.63;;;3.17;;
29688;SDS011;16600;47.444;8.334;2023-05-07T00:23:08;5.97;;;3.50;;
29688;SDS011;16600;47.444;8.334;2023-05-07T00:25:39;4.70;;;3.28;;
29688;SDS011;16600;47.444;8.334;2023-05-07T00:28:11;3.08;;;2.78;;
29688;SDS011;16600;47.444;8.334;2023-05-07T00:30:51;4.78;;;2.97;;
29688;SDS011;16600;47.444;8.334;2023-05-07T00:33:23;7.68;;;3.60;;
29688;SDS011;16600;47.444;8.334;2023-05-07T00:35:55;7.47;;;3.60;;
29688;SDS011;16600;47.444;8.334;2023-05-07T00:38:26;5.10;;;3.25;;
29688;SDS011;16600;47.444;8.334;2023-05-07T00:40:58;6.88;;;3.47;;
29688;SDS011;16600;47.444;8.334;2023-05-07T00:43:38;6.25;;;3.88;;
29688;SDS011;16600;47.444;8.334;2023-05-07T00:46:07;4.78;;;3.83;;
29688;SDS011;16600;47.444;8.334;2023-05-07T00:48:51;3.55;;;3.25;;
29688;SDS011;16600;47.444;8.334;2023-05-07T00:51:23;4.80;;;3.47;;
29688;SDS011;16600;47.444;8.334;2023-05-07T00:53:57;6.38;;;3.45;;
29688;SDS011;16600;47.444;8.334;2023-05-07T00:56:44;6.13;;;3.58;;
29688;SDS011;16600;47.444;8.334;2023-05-07T00:59:16;3.63;;;3.33;;
29688;SDS011;16600;47.444;8.334;2023-05-07T01:01:51;3.72;;;3.28;;
29688;SDS011;16600;47.444;8.334;2023-05-07T01:04:21;13.82;;;3.75;;
29688;SDS011;16600;47.444;8.334;2023-05-07T01:06:48;4.65;;;3.83;;
29688;SDS011;16600;47.444;8.334;2023-05-07T01:09:32;4.78;;;4.25;;
29688;SDS011;16600;47.444;8.334;2023-05-07T01:12:01;4.30;;;3.90;;
29688;SDS011;16600;47.444;8.334;2023-05-07T01:14:33;5.75;;;3.88;;
29688;SDS011;16600;47.444;8.334;2023-05-07T01:17:06;3.80;;;3.50;;
29688;SDS011;16600;47.444;8.334;2023-05-07T01:19:33;4.63;;;3.80;;
29688;SDS011;16600;47.444;8.334;2023-05-07T01:22:08;4.28;;;3.90;;
29688;SDS011;16600;47.444;8.334;2023-05-07T01:24:44;8.65;;;4.85;;
29688;SDS011;16600;47.444;8.334;2023-05-07T01:27:22;15.23;;;5.72;;
29688;SDS011;16600;47.444;8.334;2023-05-07T01:29:50;5.53;;;4.82;;
29688;SDS011;16600;47.444;8.334;2023-05-07T01:32:19;6.38;;;4.57;;
29688;SDS011;16600;47.444;8.334;2023-05-07T01:34:47;12.02;;;3.92;;
29688;SDS011;16600;47.444;8.334;2023-05-07T01:37:16;4.90;;;3.72;;
29688;SDS011;16600;47.444;8.334;2023-05-07T01:39:45;7.47;;;5.07;;
29688;SDS011;16600;47.444;8.334;2023-05-07T01:42:12;4.28;;;3.88;;
29688;SDS011;16600;47.444;8.334;2023-05-07T01:44:38;8.40;;;4.90;;
29688;SDS011;16600;47.444;8.334;2023-05-07T01:47:07;6.53;;;4.78;;
29688;SDS011;16600;47.444;8.334;2023-05-07T01:49:37;7.75;;;4.63;;
29688;SDS011;16600;47.444;8.334;2023-05-07T01:52:04;6.65;;;4.45;;
29688;SDS011;16600;47.444;8.334;2023-05-07T01:54:34;4.25;;;3.90;;
29688;SDS011;16600;47.444;8.334;2023-05-07T01:57:04;5.53;;;4.13;;
29688;SDS011;16600;47.444;8.334;2023-05-07T01:59:32;8.32;;;5.72;;
29688;SDS011;16600;47.444;8.334;2023-05-07T02:01:59;5.80;;;5.15;;
29688;SDS011;16600;47.444;8.334;2023-05-07T02:04:32;8.60;;;5.15;;
29688;SDS011;16600;47.444;8.334;2023-05-07T02:06:59;5.70;;;5.18;;
29688;SDS011;16600;47.444;8.334;2023-05-07T02:09:27;8.60;;;4.47;;
29688;SDS011;16600;47.444;8.334;2023-05-07T02:11:54;6.47;;;4.78;;
29688;SDS011;16600;47.444;8.334;2023-05-07T02:14:23;7.47;;;4.18;;
29688;SDS011;16600;47.444;8.334;2023-05-07T02:16:52;6.88;;;5.25;;
29688;SDS011;16600;47.444;8.334;2023-05-07T02:19:22;6.63;;;5.03;;
29688;SDS011;16600;47.444;8.334;2023-05-07T02:21:48;7.60;;;5.10;;
29688;SDS011;16600;47.444;8.334;2023-05-07T02:24:20;8.73;;;4.93;;
29688;SDS011;16600;47.444;8.334;2023-05-07T02:26:46;4.78;;;4.32;;
29688;SDS011;16600;47.444;8.334;2023-05-07T02:29:15;4.95;;;4.35;;
29688;SDS011;16600;47.444;8.334;2023-05-07T02:31:44;7.55;;;4.82;;
29688;SDS011;16600;47.444;8.334;2023-05-07T02:34:10;13.43;;;5.32;;
29688;SDS011;16600;47.444;8.334;2023-05-07T02:36:36;6.95;;;5.20;;
29688;SDS011;16600;47.444;8.334;2023-05-07T02:39:11;4.93;;;4.47;;
29688;SDS011;16600;47.444;8.334;2023-05-07T02:41:37;9.30;;;4.38;;
29688;SDS011;16600;47.444;8.334;2023-05-07T02:44:03;4.70;;;4.28;;
29688;SDS011;16600;47.444;8.334;2023-05-07T02:46:34;4.60;;;4.20;;
29688;SDS011;16600;47.444;8.334;2023-05-07T02:49:06;4.10;;;3.60;;
29688;SDS011;16600;47.444;8.334;2023-05-07T02:51:37;4.43;;;3.80;;
29688;SDS011;16600;47.444;8.334;2023-05-07T02:54:08;5.40;;;4.25;;
29688;SDS011;16600;47.444;8.334;2023-05-07T02:56:34;8.45;;;6.20;;
29688;SDS011;16600;47.444;8.334;2023-05-07T03:01:32;15.52;;;5.95;;
29688;SDS011;16600;47.444;8.334;2023-05-07T03:04:08;7.53;;;5.93;;
29688;SDS011;16600;47.444;8.334;2023-05-07T03:06:34;7.72;;;6.35;;
29688;SDS011;16600;47.444;8.334;2023-05-07T03:09:00;10.70;;;5.28;;
29688;SDS011;16600;47.444;8.334;2023-05-07T03:11:30;8.13;;;5.68;;
29688;SDS011;16600;47.444;8.334;2023-05-07T03:16:22;5.65;;;5.03;;
29688;SDS011;16600;47.444;8.334;2023-05-07T03:18:48;5.38;;;4.80;;
29688;SDS011;16600;47.444;8.334;2023-05-07T03:21:17;5.28;;;4.72;;
29688;SDS011;16600;47.444;8.334;2023-05-07T03:23:56;5.65;;;5.07;;
29688;SDS011;16600;47.444;8.334;2023-05-07T03:26:22;7.72;;;5.57;;
29688;SDS011;16600;47.444;8.334;2023-05-07T03:28:51;5.95;;;5.03;;
29688;SDS011;16600;47.444;8.334;2023-05-07T03:31:17;5.30;;;4.75;;
29688;SDS011;16600;47.444;8.334;2023-05-07T03:33:53;12.77;;;5.50;;
29688;SDS011;16600;47.444;8.334;2023-05-07T03:36:20;7.18;;;5.30;;
29688;SDS011;16600;47.444;8.334;2023-05-07T03:38:46;6.82;;;5.75;;
29688;SDS011;16600;47.444;8.334;2023-05-07T03:41:16;5.88;;;5.32;;
29688;SDS011;16600;47.444;8.334;2023-05-07T03:43:45;13.43;;;8.70;;
29688;SDS011;16600;47.444;8.334;2023-05-07T03:46:20;9.40;;;6.45;;
29688;SDS011;16600;47.444;8.334;2023-05-07T03:48:51;8.82;;;5.57;;
29688;SDS011;16600;47.444;8.334;2023-05-07T03:51:19;9.02;;;5.18;;
29688;SDS011;16600;47.444;8.334;2023-05-07T03:53:45;8.02;;;5.90;;
29688;SDS011;16600;47.444;8.334;2023-05-07T03:56:12;12.38;;;6.93;;
29688;SDS011;16600;47.444;8.334;2023-05-07T03:58:40;6.88;;;6.10;;
29688;SDS011;16600;47.444;8.334;2023-05-07T04:03:16;6.77;;;5.83;;
29688;SDS011;16600;47.444;8.334;2023-05-07T04:05:42;8.15;;;5.75;;
29688;SDS011;16600;47.444;8.334;2023-05-07T04:08:09;9.05;;;6.07;;
29688;SDS011;16600;47.444;8.334;2023-05-07T04:10:46;8.27;;;5.68;;
29688;SDS011;16600;47.444;8.334;2023-05-07T04:13:12;6.93;;;5.63;;
29688;SDS011;16600;47.444;8.334;2023-05-07T04:15:39;14.43;;;5.80;;
29688;SDS011;16600;47.444;8.334;2023-05-07T04:18:08;5.85;;;5.30;;
29688;SDS011;16600;47.444;8.334;2023-05-07T04:20:42;4.47;;;4.07;;
29688;SDS011;16600;47.444;8.334;2023-05-07T04:23:11;5.15;;;4.20;;
29688;SDS011;16600;47.444;8.334;2023-05-07T04:25:38;7.57;;;4.88;;
29688;SDS011;16600;47.444;8.334;2023-05-07T04:28:10;5.68;;;4.05;;
29688;SDS011;16600;47.444;8.334;2023-05-07T04:30:37;5.80;;;4.03;;
29688;SDS011;16600;47.444;8.334;2023-05-07T04:33:05;6.85;;;4.78;;
29688;SDS011;16600;47.444;8.334;2023-05-07T04:35:40;5.30;;;4.80;;
29688;SDS011;16600;47.444;8.334;2023-05-07T04:38:09;7.25;;;5.57;;
29688;SDS011;16600;47.444;8.334;2023-05-07T04:40:35;8.43;;;4.72;;
29688;SDS011;16600;47.444;8.334;2023-05-07T04:43:02;5.43;;;4.18;;
29688;SDS011;16600;47.444;8.334;2023-05-07T04:45:37;4.88;;;3.90;;
29688;SDS011;16600;47.444;8.334;2023-05-07T04:48:05;7.00;;;4.43;;
29688;SDS011;16600;47.444;8.334;2023-05-07T04:50:33;6.18;;;4.45;;
29688;SDS011;16600;47.444;8.334;2023-05-07T04:53:03;5.70;;;4.45;;
29688;SDS011;16600;47.444;8.334;2023-05-07T04:55:35;4.97;;;4.00;;
29688;SDS011;16600;47.444;8.334;2023-05-07T04:58:02;5.15;;;3.88;;
29688;SDS011;16600;47.444;8.334;2023-05-07T05:00:35;6.22;;;3.75;;
29688;SDS011;16600;47.444;8.334;2023-05-07T05:03:07;4.10;;;3.63;;
29688;SDS011;16600;47.444;8.334;2023-05-07T05:05:38;4.05;;;3.35;;
29688;SDS011;16600;47.444;8.334;2023-05-07T05:08:07;7.20;;;3.42;;
29688;SDS011;16600;47.444;8.334;2023-05-07T05:10:36;3.13;;;2.90;;
29688;SDS011;16600;47.444;8.334;2023-05-07T05:13:07;5.53;;;3.67;;
29688;SDS011;16600;47.444;8.334;2023-05-07T05:15:34;6.10;;;3.67;;
29688;SDS011;16600;47.444;8.334;2023-05-07T05:18:02;8.05;;;3.33;;
29688;SDS011;16600;47.444;8.334;2023-05-07T05:20:32;4.13;;;3.50;;
29688;SDS011;16600;47.444;8.334;2023-05-07T05:23:01;4.60;;;3.40;;
29688;SDS011;16600;47.444;8.334;2023-05-07T05:25:28;5.32;;;3.15;;
29688;SDS011;16600;47.444;8.334;2023-05-07T05:27:59;5.00;;;3.30;;
29688;SDS011;16600;47.444;8.334;2023-05-07T05:30:25;3.33;;;2.95;;
29688;SDS011;16600;47.444;8.334;2023-05-07T05:32:51;6.47;;;3.80;;
29688;SDS011;16600;47.444;8.334;2023-05-07T05:35:18;6.32;;;3.45;;
29688;SDS011;16600;47.444;8.334;2023-05-07T05:37:44;4.70;;;3.47;;
29688;SDS011;16600;47.444;8.334;2023-05-07T05:40:11;5.80;;;3.30;;
29688;SDS011;16600;47.444;8.334;2023-05-07T05:42:40;6.38;;;5.15;;
29688;SDS011;16600;47.444;8.334;2023-05-07T05:45:07;5.28;;;3.97;;
29688;SDS011;16600;47.444;8.334;2023-05-07T05:47:34;9.23;;;3.78;;
29688;SDS011;16600;47.444;8.334;2023-05-07T05:50:00;4.50;;;3.88;;
29688;SDS011;16600;47.444;8.334;2023-05-07T05:52:26;6.97;;;3.78;;
29688;SDS011;16600;47.444;8.334;2023-05-07T05:54:54;4.03;;;3.65;;
29688;SDS011;16600;47.444;8.334;2023-05-07T05:59:46;12.80;;;3.88;;
29688;SDS011;16600;47.444;8.334;2023-05-07T06:02:13;5.53;;;4.13;;
29688;SDS011;16600;47.444;8.334;2023-05-07T06:04:40;4.18;;;3.60;;
29688;SDS011;16600;47.444;8.334;2023-05-07T06:07:10;5.65;;;4.13;;
29688;SDS011;16600;47.444;8.334;2023-05-07T06:09:37;9.70;;;7.50;;
29688;SDS011;16600;47.444;8.334;2023-05-07T06:12:03;9.45;;;8.55;;
29688;SDS011;16600;47.444;8.334;2023-05-07T06:14:30;8.38;;;6.90;;
29688;SDS011;16600;47.444;8.334;2023-05-07T06:16:56;7.18;;;6.50;;
29688;SDS011;16600;47.444;8.334;2023-05-07T06:19:22;5.50;;;4.97;;
29688;SDS011;16600;47.444;8.334;2023-05-07T06:21:51;5.57;;;4.95;;
29688;SDS011;16600;47.444;8.334;2023-05-07T06:24:17;7.38;;;4.80;;
29688;SDS011;16600;47.444;8.334;2023-05-07T06:26:43;8.25;;;5.28;;
29688;SDS011;16600;47.444;8.334;2023-05-07T06:29:10;5.53;;;3.97;;
29688;SDS011;16600;47.444;8.334;2023-05-07T06:31:38;4.78;;;3.30;;
29688;SDS011;16600;47.444;8.334;2023-05-07T06:34:07;4.28;;;3.85;;
29688;SDS011;16600;47.444;8.334;2023-05-07T06:36:36;10.98;;;4.10;;
29688;SDS011;16600;47.444;8.334;2023-05-07T06:39:24;4.93;;;3.35;;
29688;SDS011;16600;47.444;8.334;2023-05-07T06:41:51;3.58;;;3.15;;
29688;SDS011;16600;47.444;8.334;2023-05-07T06:44:26;3.90;;;3.50;;
29688;SDS011;16600;47.444;8.334;2023-05-07T06:47:06;3.88;;;3.38;;
29688;SDS011;16600;47.444;8.334;2023-05-07T06:49:32;3.53;;;3.22;;
29688;SDS011;16600;47.444;8.334;2023-05-07T06:51:58;5.20;;;3.05;;
29688;SDS011;16600;47.444;8.334;2023-05-07T06:54:28;3.70;;;3.30;;
29688;SDS011;16600;47.444;8.334;2023-05-07T06:56:55;18.40;;;3.50;;
29688;SDS011;16600;47.444;8.334;2023-05-07T06:59:23;8.65;;;3.92;;
29688;SDS011;16600;47.444;8.334;2023-05-07T07:01:50;6.38;;;3.47;;
29688;SDS011;16600;47.444;8.334;2023-05-07T07:04:19;5.03;;;3.17;;
29688;SDS011;16600;47.444;8.334;2023-05-07T07:09:22;3.92;;;3.30;;
29688;SDS011;16600;47.444;8.334;2023-05-07T07:11:48;4.28;;;3.20;;
29688;SDS011;16600;47.444;8.334;2023-05-07T07:14:18;3.85;;;2.97;;
29688;SDS011;16600;47.444;8.334;2023-05-07T07:16:48;4.47;;;3.08;;
29688;SDS011;16600;47.444;8.334;2023-05-07T07:19:17;3.15;;;2.90;;
29688;SDS011;16600;47.444;8.334;2023-05-07T07:21:48;6.75;;;3.10;;
29688;SDS011;16600;47.444;8.334;2023-05-07T07:24:18;4.55;;;3.25;;
29688;SDS011;16600;47.444;8.334;2023-05-07T07:26:49;7.15;;;3.45;;
29688;SDS011;16600;47.444;8.334;2023-05-07T07:29:17;4.63;;;3.50;;
29688;SDS011;16600;47.444;8.334;2023-05-07T07:31:48;5.78;;;3.28;;
29688;SDS011;16600;47.444;8.334;2023-05-07T07:34:15;6.40;;;4.00;;
29688;SDS011;16600;47.444;8.334;2023-05-07T07:36:41;5.32;;;4.18;;
29688;SDS011;16600;47.444;8.334;2023-05-07T07:39:08;3.80;;;3.45;;
29688;SDS011;16600;47.444;8.334;2023-05-07T07:41:34;4.00;;;3.20;;
29688;SDS011;16600;47.444;8.334;2023-05-07T07:44:00;4.30;;;3.10;;
29688;SDS011;16600;47.444;8.334;2023-05-07T07:46:27;3.10;;;2.83;;
29688;SDS011;16600;47.444;8.334;2023-05-07T07:48:53;2.70;;;2.40;;
29688;SDS011;16600;47.444;8.334;2023-05-07T07:51:20;4.75;;;2.97;;
29688;SDS011;16600;47.444;8.334;2023-05-07T07:53:47;3.35;;;3.05;;
29688;SDS011;16600;47.444;8.334;2023-05-07T07:56:13;3.78;;;2.70;;
29688;SDS011;16600;47.444;8.334;2023-05-07T07:58:40;4.10;;;2.60;;
29688;SDS011;16600;47.444;8.334;2023-05-07T08:01:06;5.45;;;2.60;;
29688;SDS011;16600;47.444;8.334;2023-05-07T08:03:36;6.50;;;2.50;;
29688;SDS011;16600;47.444;8.334;2023-05-07T08:06:03;5.80;;;3.13;;
29688;SDS011;16600;47.444;8.334;2023-05-07T08:08:34;2.85;;;2.58;;
29688;SDS011;16600;47.444;8.334;2023-05-07T08:11:00;3.65;;;2.75;;
29688;SDS011;16600;47.444;8.334;2023-05-07T08:13:30;4.18;;;2.85;;
29688;SDS011;16600;47.444;8.334;2023-05-07T08:15:57;5.60;;;2.55;;
29688;SDS011;16600;47.444;8.334;2023-05-07T08:18:24;3.58;;;2.90;;
29688;SDS011;16600;47.444;8.334;2023-05-07T08:20:54;7.03;;;2.75;;
29688;SDS011;16600;47.444;8.334;2023-05-07T08:23:23;5.75;;;2.85;;
29688;SDS011;16600;47.444;8.334;2023-05-07T08:25:49;2.88;;;2.60;;
29688;SDS011;16600;47.444;8.334;2023-05-07T08:28:17;5.80;;;2.92;;
29688;SDS011;16600;47.444;8.334;2023-05-07T08:30:47;3.55;;;2.90;;
29688;SDS011;16600;47.444;8.334;2023-05-07T08:33:13;3.00;;;2.50;;
29688;SDS011;16600;47.444;8.334;2023-05-07T08:35:40;2.72;;;2.53;;
29688;SDS011;16600;47.444;8.334;2023-05-07T08:38:07;4.85;;;2.97;;
29688;SDS011;16600;47.444;8.334;2023-05-07T08:40:37;10.32;;;3.05;;
29688;SDS011;16600;47.444;8.334;2023-05-07T08:43:32;3.70;;;2.40;;
29688;SDS011;16600;47.444;8.334;2023-05-07T08:46:02;3.87;;;2.13;;
29688;SDS011;16600;47.444;8.334;2023-05-07T08:48:31;3.33;;;2.40;;
29688;SDS011;16600;47.444;8.334;2023-05-07T08:51:12;4.47;;;2.30;;
29688;SDS011;16600;47.444;8.334;2023-05-07T08:53:40;3.28;;;2.20;;
29688;SDS011;16600;47.444;8.334;2023-05-07T08:56:10;6.55;;;2.35;;
29688;SDS011;16600;47.444;8.334;2023-05-07T08:58:42;5.43;;;2.17;;
29688;SDS011;16600;47.444;8.334;2023-05-07T09:01:09;4.32;;;2.50;;
29688;SDS011;16600;47.444;8.334;2023-05-07T09:03:37;5.40;;;2.00;;
29688;SDS011;16600;47.444;8.334;2023-05-07T09:06:07;3.65;;;2.33;;
29688;SDS011;16600;47.444;8.334;2023-05-07T09:08:34;2.35;;;2.15;;
29688;SDS011;16600;47.444;8.334;2023-05-07T09:11:02;2.72;;;2.03;;
29688;SDS011;16600;47.444;8.334;2023-05-07T09:13:29;5.43;;;2.20;;
29688;SDS011;16600;47.444;8.334;2023-05-07T09:15:55;2.80;;;1.95;;
29688;SDS011;16600;47.444;8.334;2023-05-07T09:18:26;4.22;;;2.35;;
29688;SDS011;16600;47.444;8.334;2023-05-07T09:20:52;4.63;;;2.30;;
29688;SDS011;16600;47.444;8.334;2023-05-07T09:23:22;2.50;;;2.05;;
29688;SDS011;16600;47.444;8.334;2023-05-07T09:25:53;4.75;;;2.50;;
29688;SDS011;16600;47.444;8.334;2023-05-07T09:28:33;2.90;;;2.15;;
29688;SDS011;16600;47.444;8.334;2023-05-07T09:30:59;2.70;;;2.50;;
29688;SDS011;16600;47.444;8.334;2023-05-07T09:33:26;3.70;;;2.60;;
29688;SDS011;16600;47.444;8.334;2023-05-07T09:35:55;5.45;;;3.00;;
29688;SDS011;16600;47.444;8.334;2023-05-07T09:38:22;2.90;;;2.67;;
29688;SDS011;16600;47.444;8.334;2023-05-07T09:41:06;3.35;;;2.70;;
29688;SDS011;16600;47.444;8.334;2023-05-07T09:43:37;2.78;;;2.40;;
29688;SDS011;16600;47.444;8.334;2023-05-07T09:46:13;3.10;;;2.30;;
29688;SDS011;16600;47.444;8.334;2023-05-07T09:48:43;5.63;;;2.58;;
29688;SDS011;16600;47.444;8.334;2023-05-07T09:51:16;3.40;;;2.50;;
29688;SDS011;16600;47.444;8.334;2023-05-07T09:53:45;3.60;;;2.92;;
29688;SDS011;16600;47.444;8.334;2023-05-07T09:56:13;3.38;;;2.30;;
29688;SDS011;16600;47.444;8.334;2023-05-07T09:58:43;3.90;;;2.17;;
29688;SDS011;16600;47.444;8.334;2023-05-07T10:03:02;3.80;;;2.47;;
29688;SDS011;16600;47.444;8.334;2023-05-07T10:05:42;4.80;;;3.13;;
29688;SDS011;16600;47.444;8.334;2023-05-07T10:08:12;3.72;;;2.72;;
29688;SDS011;16600;47.444;8.334;2023-05-07T10:10:40;4.95;;;2.88;;
29688;SDS011;16600;47.444;8.334;2023-05-07T10:13:11;4.90;;;3.13;;
29688;SDS011;16600;47.444;8.334;2023-05-07T10:15:42;7.25;;;3.97;;
29688;SDS011;16600;47.444;8.334;2023-05-07T10:18:13;7.28;;;2.97;;
29688;SDS011;16600;47.444;8.334;2023-05-07T10:20:40;7.15;;;3.80;;
29688;SDS011;16600;47.444;8.334;2023-05-07T10:23:10;7.15;;;3.88;;
29688;SDS011;16600;47.444;8.334;2023-05-07T10:25:42;5.90;;;4.57;;
29688;SDS011;16600;47.444;8.334;2023-05-07T10:28:17;4.65;;;3.90;;
29688;SDS011;16600;47.444;8.334;2023-05-07T10:30:56;3.35;;;2.90;;
29688;SDS011;16600;47.444;8.334;2023-05-07T10:33:30;5.18;;;3.65;;
29688;SDS011;16600;47.444;8.334;2023-05-07T10:36:01;4.35;;;3.15;;
29688;SDS011;16600;47.444;8.334;2023-05-07T10:38:31;4.07;;;3.22;;
29688;SDS011;16600;47.444;8.334;2023-05-07T10:41:01;4.20;;;3.08;;
29688;SDS011;16600;47.444;8.334;2023-05-07T10:43:44;4.13;;;3.38;;
29688;SDS011;16600;47.444;8.334;2023-05-07T10:46:20;3.30;;;2.97;;
29688;SDS011;16600;47.444;8.334;2023-05-07T10:51:29;7.00;;;3.67;;
29688;SDS011;16600;47.444;8.334;2023-05-07T10:56:37;4.15;;;3.08;;
29688;SDS011;16600;47.444;8.334;2023-05-07T11:02:04;2.80;;;2.50;;
29688;SDS011;16600;47.444;8.334;2023-05-07T11:08:12;3.53;;;3.17;;
29688;SDS011;16600;47.444;8.334;2023-05-07T11:10:56;4.35;;;3.35;;
29688;SDS011;16600;47.444;8.334;2023-05-07T11:13:42;7.70;;;2.88;;
29688;SDS011;16600;47.444;8.334;2023-05-07T11:16:18;4.32;;;2.92;;
29688;SDS011;16600;47.444;8.334;2023-05-07T11:18:54;3.60;;;2.90;;
29688;SDS011;16600;47.444;8.334;2023-05-07T11:21:39;5.63;;;3.28;;
29688;SDS011;16600;47.444;8.334;2023-05-07T11:24:18;4.03;;;3.10;;
29688;SDS011;16600;47.444;8.334;2023-05-07T11:26:52;3.38;;;2.97;;
29688;SDS011;16600;47.444;8.334;2023-05-07T11:29:25;6.50;;;3.13;;
29688;SDS011;16600;47.444;8.334;2023-05-07T11:32:00;4.30;;;3.40;;
29688;SDS011;16600;47.444;8.334;2023-05-07T11:34:37;6.97;;;3.53;;
29688;SDS011;16600;47.444;8.334;2023-05-07T11:37:06;3.50;;;3.03;;
29688;SDS011;16600;47.444;8.334;2023-05-07T11:39:45;5.97;;;3.25;;
29688;SDS011;16600;47.444;8.334;2023-05-07T11:42:30;5.60;;;3.10;;
29688;SDS011;16600;47.444;8.334;2023-05-07T11:44:57;6.18;;;3.40;;
29688;SDS011;16600;47.444;8.334;2023-05-07T11:47:29;4.32;;;3.00;;
29688;SDS011;16600;47.444;8.334;2023-05-07T11:49:59;10.07;;;3.33;;
29688;SDS011;16600;47.444;8.334;2023-05-07T11:52:28;5.07;;;3.22;;
29688;SDS011;16600;47.444;8.334;2023-05-07T11:55:02;3.83;;;2.80;;
29688;SDS011;16600;47.444;8.334;2023-05-07T11:57:30;6.32;;;2.90;;
29688;SDS011;16600;47.444;8.334;2023-05-07T11:59:56;4.20;;;3.03;;
29688;SDS011;16600;47.444;8.334;2023-05-07T12:02:23;5.35;;;3.03;;
29688;SDS011;16600;47.444;8.334;2023-05-07T12:04:53;2.97;;;2.72;;
29688;SDS011;16600;47.444;8.334;2023-05-07T12:07:26;4.47;;;3.42;;
29688;SDS011;16600;47.444;8.334;2023-05-07T12:10:04;3.72;;;3.22;;
29688;SDS011;16600;47.444;8.334;2023-05-07T12:12:42;5.28;;;3.53;;
29688;SDS011;16600;47.444;8.334;2023-05-07T12:15:24;8.97;;;3.70;;
29688;SDS011;16600;47.444;8.334;2023-05-07T12:17:59;6.60;;;3.83;;
29688;SDS011;16600;47.444;8.334;2023-05-07T12:20:28;7.60;;;4.70;;
29688;SDS011;16600;47.444;8.334;2023-05-07T12:22:58;4.68;;;3.25;;
29688;SDS011;16600;47.444;8.334;2023-05-07T12:25:29;6.20;;;3.50;;
29688;SDS011;16600;47.444;8.334;2023-05-07T12:28:02;3.75;;;3.45;;
29688;SDS011;16600;47.444;8.334;2023-05-07T12:30:32;3.25;;;2.67;;
29688;SDS011;16600;47.444;8.334;2023-05-07T12:33:01;4.45;;;3.20;;
29688;SDS011;16600;47.444;8.334;2023-05-07T12:35:27;14.75;;;3.15;;
29688;SDS011;16600;47.444;8.334;2023-05-07T12:37:57;4.32;;;2.45;;
29688;SDS011;16600;47.444;8.334;2023-05-07T12:40:37;5.88;;;3.38;;
29688;SDS011;16600;47.444;8.334;2023-05-07T12:43:07;3.38;;;2.90;;
29688;SDS011;16600;47.444;8.334;2023-05-07T12:45:37;2.78;;;2.53;;
29688;SDS011;16600;47.444;8.334;2023-05-07T12:48:12;5.90;;;2.75;;
29688;SDS011;16600;47.444;8.334;2023-05-07T12:50:42;6.50;;;3.40;;
29688;SDS011;16600;47.444;8.334;2023-05-07T12:53:11;10.43;;;2.75;;
29688;SDS011;16600;47.444;8.334;2023-05-07T12:55:49;12.90;;;2.90;;
29688;SDS011;16600;47.444;8.334;2023-05-07T12:58:24;7.22;;;2.97;;
29688;SDS011;16600;47.444;8.334;2023-05-07T13:00:54;10.98;;;2.70;;
29688;SDS011;16600;47.444;8.334;2023-05-07T13:03:27;4.28;;;2.67;;
29688;SDS011;16600;47.444;8.334;2023-05-07T13:06:04;6.30;;;2.35;;
29688;SDS011;16600;47.444;8.334;2023-05-07T13:08:32;3.50;;;2.47;;
29688;SDS011;16600;47.444;8.334;2023-05-07T13:10:58;3.08;;;2.65;;
29688;SDS011;16600;47.444;8.334;2023-05-07T13:13:32;2.72;;;2.40;;
29688;SDS011;16600;47.444;8.334;2023-05-07T13:16:02;3.13;;;2.42;;
29688;SDS011;16600;47.444;8.334;2023-05-07T13:18:34;3.35;;;2.35;;
29688;SDS011;16600;47.444;8.334;2023-05-07T13:21:04;4.90;;;2.58;;
29688;SDS011;16600;47.444;8.334;2023-05-07T13:23:38;3.13;;;2.60;;
29688;SDS011;16600;47.444;8.334;2023-05-07T13:26:13;2.40;;;1.92;;
29688;SDS011;16600;47.444;8.334;2023-05-07T13:28:43;4.00;;;2.47;;
29688;SDS011;16600;47.444;8.334;2023-05-07T13:31:18;2.05;;;1.88;;
29688;SDS011;16600;47.444;8.334;2023-05-07T13:33:50;4.13;;;1.83;;
29688;SDS011;16600;47.444;8.334;2023-05-07T13:36:24;3.10;;;1.67;;
29688;SDS011;16600;47.444;8.334;2023-05-07T13:39:04;1.70;;;1.30;;
29688;SDS011;16600;47.444;8.334;2023-05-07T13:41:31;2.50;;;1.75;;
29688;SDS011;16600;47.444;8.334;2023-05-07T13:43:57;2.42;;;1.80;;
29688;SDS011;16600;47.444;8.334;2023-05-07T13:46:24;3.30;;;1.92;;
29688;SDS011;16600;47.444;8.334;2023-05-07T13:48:53;8.98;;;1.92;;
29688;SDS011;16600;47.444;8.334;2023-05-07T13:51:29;3.17;;;1.87;;
29688;SDS011;16600;47.444;8.334;2023-05-07T13:53:58;2.22;;;1.85;;
29688;SDS011;16600;47.444;8.334;2023-05-07T13:56:24;2.78;;;2.00;;
29688;SDS011;16600;47.444;8.334;2023-05-07T13:58:59;2.85;;;1.80;;
29688;SDS011;16600;47.444;8.334;2023-05-07T14:01:28;1.95;;;1.50;;
29688;SDS011;16600;47.444;8.334;2023-05-07T14:03:55;2.25;;;1.90;;
29688;SDS011;16600;47.444;8.334;2023-05-07T14:06:25;4.35;;;2.10;;
29688;SDS011;16600;47.444;8.334;2023-05-07T14:08:54;3.40;;;1.88;;
29688;SDS011;16600;47.444;8.334;2023-05-07T14:11:23;3.88;;;2.10;;
29688;SDS011;16600;47.444;8.334;2023-05-07T14:13:53;3.55;;;2.33;;
29688;SDS011;16600;47.444;8.334;2023-05-07T14:16:22;6.30;;;2.50;;
29688;SDS011;16600;47.444;8.334;2023-05-07T14:18:48;2.50;;;2.25;;
29688;SDS011;16600;47.444;8.334;2023-05-07T14:21:17;3.30;;;2.33;;
29688;SDS011;16600;47.444;8.334;2023-05-07T14:23:46;2.50;;;2.28;;
29688;SDS011;16600;47.444;8.334;2023-05-07T14:26:19;3.22;;;2.33;;
29688;SDS011;16600;47.444;8.334;2023-05-07T14:28:51;2.30;;;2.10;;
29688;SDS011;16600;47.444;8.334;2023-05-07T14:31:23;4.63;;;2.10;;
29688;SDS011;16600;47.444;8.334;2023-05-07T14:34:00;3.63;;;2.00;;
29688;SDS011;16600;47.444;8.334;2023-05-07T14:36:44;4.25;;;2.25;;
29688;SDS011;16600;47.444;8.334;2023-05-07T14:39:17;1.88;;;1.77;;
29688;SDS011;16600;47.444;8.334;2023-05-07T14:41:43;2.38;;;1.70;;
29688;SDS011;16600;47.444;8.334;2023-05-07T14:44:13;1.60;;;1.50;;
29688;SDS011;16600;47.444;8.334;2023-05-07T14:46:39;2.20;;;2.00;;
29688;SDS011;16600;47.444;8.334;2023-05-07T14:49:06;19.85;;;6.00;;
29688;SDS011;16600;47.444;8.334;2023-05-07T14:51:32;2.28;;;2.03;;
29688;SDS011;16600;47.444;8.334;2023-05-07T14:54:01;5.55;;;4.53;;
29688;SDS011;16600;47.444;8.334;2023-05-07T14:56:34;5.43;;;3.90;;
29688;SDS011;16600;47.444;8.334;2023-05-07T14:59:01;4.53;;;2.78;;
29688;SDS011;16600;47.444;8.334;2023-05-07T15:01:31;4.47;;;3.13;;
29688;SDS011;16600;47.444;8.334;2023-05-07T15:03:57;1.88;;;1.67;;
29688;SDS011;16600;47.444;8.334;2023-05-07T15:06:24;7.20;;;2.15;;
29688;SDS011;16600;47.444;8.334;2023-05-07T15:08:51;4.78;;;3.08;;
29688;SDS011;16600;47.444;8.334;2023-05-07T15:11:17;20.25;;;7.47;;
29688;SDS011;16600;47.444;8.334;2023-05-07T15:13:46;10.18;;;5.15;;
29688;SDS011;16600;47.444;8.334;2023-05-07T15:16:15;2.95;;;2.33;;
29688;SDS011;16600;47.444;8.334;2023-05-07T15:18:44;2.45;;;1.95;;
29688;SDS011;16600;47.444;8.334;2023-05-07T15:21:11;4.07;;;1.90;;
29688;SDS011;16600;47.444;8.334;2023-05-07T15:23:39;2.70;;;1.90;;
29688;SDS011;16600;47.444;8.334;2023-05-07T15:26:06;2.45;;;1.90;;
29688;SDS011;16600;47.444;8.334;2023-05-07T15:28:35;7.13;;;2.17;;
29688;SDS011;16600;47.444;8.334;2023-05-07T15:31:01;2.40;;;2.03;;
29688;SDS011;16600;47.444;8.334;2023-05-07T15:33:28;2.60;;;1.70;;